Terminal Aerodrome Forecast
Issued by NWS

Home | Current Version | Previous Version | Text Only | Print | Product List | Glossary On
Versions: 1 2 3 4 5 6 7 8 9 10 11 12 13
000
FTUS45 KTFX 141100
TAFLWT
TAF
KLWT 141123Z 1412/1512 09005KT P6SM BKN150
     FM150300 11010KT P6SM SCT070 BKN100
     FM151000 12007KT P6SM VCTS SCT060CB BKN090=

USA.gov is the U.S. government's official web portal to all federal, state and local government web resources and services.